sensor_id;sensor_type;location;lat;lon;timestamp;P1;durP1;ratioP1;P2;durP2;ratioP2
16737;SDS011;17906;47.684;10.806;2024-03-02T00:00:14;23.00;;;3.63;;
16737;SDS011;17906;47.684;10.806;2024-03-02T00:02:40;9.37;;;2.73;;
16737;SDS011;17906;47.684;10.806;2024-03-02T00:05:08;12.33;;;3.30;;
16737;SDS011;17906;47.684;10.806;2024-03-02T00:07:37;8.80;;;2.60;;
16737;SDS011;17906;47.684;10.806;2024-03-02T00:10:04;5.93;;;3.00;;
16737;SDS011;17906;47.684;10.806;2024-03-02T00:12:34;6.70;;;2.63;;
16737;SDS011;17906;47.684;10.806;2024-03-02T00:15:00;4.30;;;2.50;;
16737;SDS011;17906;47.684;10.806;2024-03-02T00:17:27;8.47;;;2.47;;
16737;SDS011;17906;47.684;10.806;2024-03-02T00:19:55;7.93;;;2.60;;
16737;SDS011;17906;47.684;10.806;2024-03-02T00:22:23;11.13;;;4.00;;
16737;SDS011;17906;47.684;10.806;2024-03-02T00:24:49;19.60;;;5.53;;
16737;SDS011;17906;47.684;10.806;2024-03-02T00:27:16;15.60;;;4.97;;
16737;SDS011;17906;47.684;10.806;2024-03-02T00:29:44;12.23;;;3.67;;
16737;SDS011;17906;47.684;10.806;2024-03-02T00:32:10;6.97;;;2.83;;
16737;SDS011;17906;47.684;10.806;2024-03-02T00:34:38;11.70;;;2.90;;
16737;SDS011;17906;47.684;10.806;2024-03-02T00:37:05;13.63;;;2.70;;
16737;SDS011;17906;47.684;10.806;2024-03-02T00:39:32;8.80;;;2.87;;
16737;SDS011;17906;47.684;10.806;2024-03-02T00:41:59;6.93;;;2.57;;
16737;SDS011;17906;47.684;10.806;2024-03-02T00:44:25;6.97;;;2.00;;
16737;SDS011;17906;47.684;10.806;2024-03-02T00:46:51;4.07;;;2.27;;
16737;SDS011;17906;47.684;10.806;2024-03-02T00:49:20;7.27;;;2.77;;
16737;SDS011;17906;47.684;10.806;2024-03-02T00:51:48;8.33;;;3.60;;
16737;SDS011;17906;47.684;10.806;2024-03-02T00:54:14;8.33;;;4.00;;
16737;SDS011;17906;47.684;10.806;2024-03-02T00:56:42;8.93;;;3.50;;
16737;SDS011;17906;47.684;10.806;2024-03-02T00:59:09;5.80;;;2.83;;
16737;SDS011;17906;47.684;10.806;2024-03-02T01:01:36;6.70;;;3.67;;
16737;SDS011;17906;47.684;10.806;2024-03-02T01:04:02;6.67;;;3.43;;
16737;SDS011;17906;47.684;10.806;2024-03-02T01:06:29;10.27;;;4.40;;
16737;SDS011;17906;47.684;10.806;2024-03-02T01:08:56;10.47;;;4.80;;
16737;SDS011;17906;47.684;10.806;2024-03-02T01:11:22;11.77;;;5.67;;
16737;SDS011;17906;47.684;10.806;2024-03-02T01:13:50;11.43;;;5.33;;
16737;SDS011;17906;47.684;10.806;2024-03-02T01:16:16;11.43;;;5.03;;
16737;SDS011;17906;47.684;10.806;2024-03-02T01:18:43;8.60;;;4.70;;
16737;SDS011;17906;47.684;10.806;2024-03-02T01:21:09;10.33;;;5.23;;
16737;SDS011;17906;47.684;10.806;2024-03-02T01:23:36;9.27;;;4.50;;
16737;SDS011;17906;47.684;10.806;2024-03-02T01:26:02;7.60;;;4.37;;
16737;SDS011;17906;47.684;10.806;2024-03-02T01:28:29;8.70;;;4.83;;
16737;SDS011;17906;47.684;10.806;2024-03-02T01:30:57;12.30;;;5.83;;
16737;SDS011;17906;47.684;10.806;2024-03-02T01:33:23;13.40;;;5.20;;
16737;SDS011;17906;47.684;10.806;2024-03-02T01:35:49;9.47;;;5.13;;
16737;SDS011;17906;47.684;10.806;2024-03-02T01:38:16;12.43;;;5.47;;
16737;SDS011;17906;47.684;10.806;2024-03-02T01:40:42;15.83;;;4.30;;
16737;SDS011;17906;47.684;10.806;2024-03-02T01:43:10;21.83;;;5.40;;
16737;SDS011;17906;47.684;10.806;2024-03-02T01:45:36;10.93;;;4.37;;
16737;SDS011;17906;47.684;10.806;2024-03-02T01:48:05;9.67;;;4.37;;
16737;SDS011;17906;47.684;10.806;2024-03-02T01:50:32;20.40;;;4.43;;
16737;SDS011;17906;47.684;10.806;2024-03-02T01:52:58;8.83;;;4.87;;
16737;SDS011;17906;47.684;10.806;2024-03-02T01:55:25;10.30;;;4.90;;
16737;SDS011;17906;47.684;10.806;2024-03-02T01:57:52;10.47;;;4.90;;
16737;SDS011;17906;47.684;10.806;2024-03-02T02:00:19;10.80;;;4.90;;
16737;SDS011;17906;47.684;10.806;2024-03-02T02:02:46;12.10;;;5.17;;
16737;SDS011;17906;47.684;10.806;2024-03-02T02:05:14;8.43;;;4.40;;
16737;SDS011;17906;47.684;10.806;2024-03-02T02:07:41;7.53;;;4.10;;
16737;SDS011;17906;47.684;10.806;2024-03-02T02:10:08;5.37;;;3.50;;
16737;SDS011;17906;47.684;10.806;2024-03-02T02:12:34;5.00;;;2.77;;
16737;SDS011;17906;47.684;10.806;2024-03-02T02:15:01;4.30;;;2.97;;
16737;SDS011;17906;47.684;10.806;2024-03-02T02:17:27;3.73;;;2.37;;
16737;SDS011;17906;47.684;10.806;2024-03-02T02:19:53;3.60;;;2.30;;
16737;SDS011;17906;47.684;10.806;2024-03-02T02:22:21;1.83;;;1.47;;
16737;SDS011;17906;47.684;10.806;2024-03-02T02:24:47;2.23;;;1.60;;
16737;SDS011;17906;47.684;10.806;2024-03-02T02:27:14;2.50;;;1.90;;
16737;SDS011;17906;47.684;10.806;2024-03-02T02:29:40;4.23;;;1.77;;
16737;SDS011;17906;47.684;10.806;2024-03-02T02:32:07;3.10;;;1.97;;
16737;SDS011;17906;47.684;10.806;2024-03-02T02:34:33;7.60;;;3.50;;
16737;SDS011;17906;47.684;10.806;2024-03-02T02:36:59;6.50;;;3.50;;
16737;SDS011;17906;47.684;10.806;2024-03-02T02:39:27;6.83;;;3.23;;
16737;SDS011;17906;47.684;10.806;2024-03-02T02:41:54;4.23;;;2.63;;
16737;SDS011;17906;47.684;10.806;2024-03-02T02:44:20;4.20;;;2.50;;
16737;SDS011;17906;47.684;10.806;2024-03-02T02:46:46;3.60;;;2.13;;
16737;SDS011;17906;47.684;10.806;2024-03-02T02:49:13;3.77;;;2.50;;
16737;SDS011;17906;47.684;10.806;2024-03-02T02:51:40;3.67;;;2.43;;
16737;SDS011;17906;47.684;10.806;2024-03-02T02:54:06;4.47;;;2.63;;
16737;SDS011;17906;47.684;10.806;2024-03-02T02:56:34;3.57;;;2.20;;
16737;SDS011;17906;47.684;10.806;2024-03-02T02:59:00;7.03;;;2.40;;
16737;SDS011;17906;47.684;10.806;2024-03-02T03:01:26;3.63;;;2.20;;
16737;SDS011;17906;47.684;10.806;2024-03-02T03:03:53;3.20;;;2.33;;
16737;SDS011;17906;47.684;10.806;2024-03-02T03:06:19;4.20;;;2.23;;
16737;SDS011;17906;47.684;10.806;2024-03-02T03:08:46;2.70;;;2.20;;
16737;SDS011;17906;47.684;10.806;2024-03-02T03:11:12;4.23;;;2.40;;
16737;SDS011;17906;47.684;10.806;2024-03-02T03:13:40;6.40;;;2.07;;
16737;SDS011;17906;47.684;10.806;2024-03-02T03:16:07;4.17;;;2.00;;
16737;SDS011;17906;47.684;10.806;2024-03-02T03:18:33;3.23;;;1.90;;
16737;SDS011;17906;47.684;10.806;2024-03-02T03:21:00;3.00;;;1.90;;
16737;SDS011;17906;47.684;10.806;2024-03-02T03:23:26;3.07;;;2.10;;
16737;SDS011;17906;47.684;10.806;2024-03-02T03:25:52;3.53;;;1.90;;
16737;SDS011;17906;47.684;10.806;2024-03-02T03:28:19;2.23;;;1.80;;
16737;SDS011;17906;47.684;10.806;2024-03-02T03:30:45;2.90;;;1.70;;
16737;SDS011;17906;47.684;10.806;2024-03-02T03:33:12;2.23;;;1.63;;
16737;SDS011;17906;47.684;10.806;2024-03-02T03:35:39;3.83;;;2.20;;
16737;SDS011;17906;47.684;10.806;2024-03-02T03:38:05;2.40;;;1.80;;
16737;SDS011;17906;47.684;10.806;2024-03-02T03:40:32;2.63;;;1.90;;
16737;SDS011;17906;47.684;10.806;2024-03-02T03:42:58;3.10;;;1.80;;
16737;SDS011;17906;47.684;10.806;2024-03-02T03:45:25;2.83;;;1.87;;
16737;SDS011;17906;47.684;10.806;2024-03-02T03:47:53;2.40;;;1.50;;
16737;SDS011;17906;47.684;10.806;2024-03-02T03:50:19;4.43;;;1.80;;
16737;SDS011;17906;47.684;10.806;2024-03-02T03:52:46;2.67;;;1.80;;
16737;SDS011;17906;47.684;10.806;2024-03-02T03:55:12;2.80;;;1.90;;
16737;SDS011;17906;47.684;10.806;2024-03-02T03:57:38;2.60;;;1.83;;
16737;SDS011;17906;47.684;10.806;2024-03-02T04:00:05;3.20;;;1.90;;
16737;SDS011;17906;47.684;10.806;2024-03-02T04:02:35;4.73;;;2.47;;
16737;SDS011;17906;47.684;10.806;2024-03-02T04:05:03;4.30;;;2.23;;
16737;SDS011;17906;47.684;10.806;2024-03-02T04:07:33;5.50;;;2.10;;
16737;SDS011;17906;47.684;10.806;2024-03-02T04:10:04;3.93;;;2.10;;
16737;SDS011;17906;47.684;10.806;2024-03-02T04:12:33;3.03;;;1.97;;
16737;SDS011;17906;47.684;10.806;2024-03-02T04:14:59;2.60;;;1.90;;
16737;SDS011;17906;47.684;10.806;2024-03-02T04:17:26;4.37;;;2.77;;
16737;SDS011;17906;47.684;10.806;2024-03-02T04:19:53;4.33;;;2.80;;
16737;SDS011;17906;47.684;10.806;2024-03-02T04:22:20;5.13;;;2.90;;
16737;SDS011;17906;47.684;10.806;2024-03-02T04:24:47;5.00;;;3.30;;
16737;SDS011;17906;47.684;10.806;2024-03-02T04:27:13;7.13;;;2.80;;
16737;SDS011;17906;47.684;10.806;2024-03-02T04:29:40;6.10;;;3.00;;
16737;SDS011;17906;47.684;10.806;2024-03-02T04:32:06;8.43;;;3.73;;
16737;SDS011;17906;47.684;10.806;2024-03-02T04:34:33;7.33;;;3.23;;
16737;SDS011;17906;47.684;10.806;2024-03-02T04:36:59;5.23;;;3.20;;
16737;SDS011;17906;47.684;10.806;2024-03-02T04:39:27;5.23;;;3.30;;
16737;SDS011;17906;47.684;10.806;2024-03-02T04:41:53;8.37;;;4.33;;
16737;SDS011;17906;47.684;10.806;2024-03-02T04:44:19;8.37;;;4.43;;
16737;SDS011;17906;47.684;10.806;2024-03-02T04:46:46;9.20;;;3.70;;
16737;SDS011;17906;47.684;10.806;2024-03-02T04:49:13;7.97;;;3.73;;
16737;SDS011;17906;47.684;10.806;2024-03-02T04:51:39;5.10;;;3.40;;
16737;SDS011;17906;47.684;10.806;2024-03-02T04:54:06;5.77;;;3.10;;
16737;SDS011;17906;47.684;10.806;2024-03-02T04:56:33;5.20;;;3.00;;
16737;SDS011;17906;47.684;10.806;2024-03-02T04:59:14;5.63;;;2.90;;
16737;SDS011;17906;47.684;10.806;2024-03-02T05:01:41;3.47;;;2.03;;
16737;SDS011;17906;47.684;10.806;2024-03-02T05:04:07;4.10;;;2.53;;
16737;SDS011;17906;47.684;10.806;2024-03-02T05:06:34;6.00;;;3.03;;
16737;SDS011;17906;47.684;10.806;2024-03-02T05:09:00;6.27;;;3.00;;
16737;SDS011;17906;47.684;10.806;2024-03-02T05:11:26;2.80;;;1.97;;
16737;SDS011;17906;47.684;10.806;2024-03-02T05:14:15;3.77;;;2.10;;
16737;SDS011;17906;47.684;10.806;2024-03-02T05:16:40;4.23;;;2.30;;
16737;SDS011;17906;47.684;10.806;2024-03-02T05:19:07;3.33;;;2.20;;
16737;SDS011;17906;47.684;10.806;2024-03-02T05:21:33;4.63;;;2.47;;
16737;SDS011;17906;47.684;10.806;2024-03-02T05:24:00;3.40;;;2.17;;
16737;SDS011;17906;47.684;10.806;2024-03-02T05:26:26;3.77;;;2.17;;
16737;SDS011;17906;47.684;10.806;2024-03-02T05:28:53;4.60;;;1.90;;
16737;SDS011;17906;47.684;10.806;2024-03-02T05:31:20;4.60;;;2.23;;
16737;SDS011;17906;47.684;10.806;2024-03-02T05:33:47;3.57;;;2.17;;
16737;SDS011;17906;47.684;10.806;2024-03-02T05:36:13;4.67;;;2.40;;
16737;SDS011;17906;47.684;10.806;2024-03-02T05:38:40;4.57;;;2.17;;
16737;SDS011;17906;47.684;10.806;2024-03-02T05:41:06;4.63;;;2.13;;
16737;SDS011;17906;47.684;10.806;2024-03-02T05:43:32;5.83;;;2.30;;
16737;SDS011;17906;47.684;10.806;2024-03-02T05:45:59;3.53;;;2.27;;
16737;SDS011;17906;47.684;10.806;2024-03-02T05:48:26;5.17;;;2.40;;
16737;SDS011;17906;47.684;10.806;2024-03-02T05:50:53;3.63;;;2.17;;
16737;SDS011;17906;47.684;10.806;2024-03-02T05:53:19;4.00;;;2.20;;
16737;SDS011;17906;47.684;10.806;2024-03-02T05:55:45;3.77;;;2.30;;
16737;SDS011;17906;47.684;10.806;2024-03-02T05:58:12;4.00;;;2.20;;
16737;SDS011;17906;47.684;10.806;2024-03-02T06:00:50;5.20;;;2.57;;
16737;SDS011;17906;47.684;10.806;2024-03-02T06:03:17;4.60;;;2.20;;
16737;SDS011;17906;47.684;10.806;2024-03-02T06:05:45;4.03;;;2.33;;
16737;SDS011;17906;47.684;10.806;2024-03-02T06:08:14;6.50;;;2.60;;
16737;SDS011;17906;47.684;10.806;2024-03-02T06:10:40;5.37;;;2.27;;
16737;SDS011;17906;47.684;10.806;2024-03-02T06:13:07;4.67;;;2.30;;
16737;SDS011;17906;47.684;10.806;2024-03-02T06:15:33;3.80;;;2.10;;
16737;SDS011;17906;47.684;10.806;2024-03-02T06:18:01;4.63;;;2.73;;
16737;SDS011;17906;47.684;10.806;2024-03-02T06:20:27;3.23;;;2.20;;
16737;SDS011;17906;47.684;10.806;2024-03-02T06:22:57;3.77;;;2.00;;
16737;SDS011;17906;47.684;10.806;2024-03-02T06:25:23;4.93;;;2.70;;
16737;SDS011;17906;47.684;10.806;2024-03-02T06:27:50;4.53;;;2.70;;
16737;SDS011;17906;47.684;10.806;2024-03-02T06:30:16;6.73;;;2.40;;
16737;SDS011;17906;47.684;10.806;2024-03-02T06:32:42;4.23;;;2.40;;
16737;SDS011;17906;47.684;10.806;2024-03-02T06:35:09;6.93;;;2.70;;
16737;SDS011;17906;47.684;10.806;2024-03-02T06:37:35;4.17;;;2.27;;
16737;SDS011;17906;47.684;10.806;2024-03-02T06:40:03;3.73;;;2.17;;
16737;SDS011;17906;47.684;10.806;2024-03-02T06:42:32;6.50;;;2.87;;
16737;SDS011;17906;47.684;10.806;2024-03-02T06:44:58;8.57;;;3.07;;
16737;SDS011;17906;47.684;10.806;2024-03-02T06:47:25;8.63;;;3.80;;
16737;SDS011;17906;47.684;10.806;2024-03-02T06:49:51;9.30;;;3.70;;
16737;SDS011;17906;47.684;10.806;2024-03-02T06:52:18;17.57;;;4.90;;
16737;SDS011;17906;47.684;10.806;2024-03-02T06:54:45;13.63;;;4.43;;
16737;SDS011;17906;47.684;10.806;2024-03-02T06:57:13;16.83;;;6.53;;
16737;SDS011;17906;47.684;10.806;2024-03-02T06:59:39;25.33;;;7.00;;
16737;SDS011;17906;47.684;10.806;2024-03-02T07:02:06;25.17;;;6.63;;
16737;SDS011;17906;47.684;10.806;2024-03-02T07:04:33;29.00;;;6.80;;
16737;SDS011;17906;47.684;10.806;2024-03-02T07:07:00;17.67;;;6.87;;
16737;SDS011;17906;47.684;10.806;2024-03-02T07:09:26;16.20;;;6.07;;
16737;SDS011;17906;47.684;10.806;2024-03-02T07:11:53;14.63;;;6.87;;
16737;SDS011;17906;47.684;10.806;2024-03-02T07:14:20;15.47;;;6.80;;
16737;SDS011;17906;47.684;10.806;2024-03-02T07:17:02;11.70;;;6.43;;
16737;SDS011;17906;47.684;10.806;2024-03-02T07:19:29;22.10;;;13.53;;
16737;SDS011;17906;47.684;10.806;2024-03-02T07:21:55;22.83;;;9.27;;
16737;SDS011;17906;47.684;10.806;2024-03-02T07:24:21;11.23;;;5.70;;
16737;SDS011;17906;47.684;10.806;2024-03-02T07:26:48;27.10;;;5.73;;
16737;SDS011;17906;47.684;10.806;2024-03-02T07:29:14;15.60;;;5.37;;
16737;SDS011;17906;47.684;10.806;2024-03-02T07:31:42;9.93;;;4.60;;
16737;SDS011;17906;47.684;10.806;2024-03-02T07:34:08;9.87;;;4.50;;
16737;SDS011;17906;47.684;10.806;2024-03-02T07:36:35;7.97;;;4.20;;
16737;SDS011;17906;47.684;10.806;2024-03-02T07:39:02;9.97;;;4.67;;
16737;SDS011;17906;47.684;10.806;2024-03-02T07:41:28;6.20;;;3.90;;
16737;SDS011;17906;47.684;10.806;2024-03-02T07:43:55;7.93;;;4.40;;
16737;SDS011;17906;47.684;10.806;2024-03-02T07:46:22;6.30;;;3.93;;
16737;SDS011;17906;47.684;10.806;2024-03-02T07:48:49;5.10;;;3.50;;
16737;SDS011;17906;47.684;10.806;2024-03-02T07:51:16;6.73;;;3.33;;
16737;SDS011;17906;47.684;10.806;2024-03-02T07:53:43;6.80;;;3.87;;
16737;SDS011;17906;47.684;10.806;2024-03-02T07:56:09;6.77;;;4.37;;
16737;SDS011;17906;47.684;10.806;2024-03-02T07:58:36;6.50;;;4.13;;
16737;SDS011;17906;47.684;10.806;2024-03-02T08:01:02;10.13;;;6.10;;
16737;SDS011;17906;47.684;10.806;2024-03-02T08:03:29;7.20;;;4.47;;
16737;SDS011;17906;47.684;10.806;2024-03-02T08:05:58;6.60;;;3.90;;
16737;SDS011;17906;47.684;10.806;2024-03-02T08:08:25;7.53;;;4.57;;
16737;SDS011;17906;47.684;10.806;2024-03-02T08:10:52;5.90;;;4.03;;
16737;SDS011;17906;47.684;10.806;2024-03-02T08:13:18;6.60;;;4.17;;
16737;SDS011;17906;47.684;10.806;2024-03-02T08:15:45;6.30;;;4.10;;
16737;SDS011;17906;47.684;10.806;2024-03-02T08:18:11;7.27;;;4.53;;
16737;SDS011;17906;47.684;10.806;2024-03-02T08:20:38;6.50;;;4.23;;
16737;SDS011;17906;47.684;10.806;2024-03-02T08:23:06;3.23;;;2.13;;
16737;SDS011;17906;47.684;10.806;2024-03-02T08:25:33;2.40;;;1.50;;
16737;SDS011;17906;47.684;10.806;2024-03-02T08:27:59;2.70;;;2.03;;
16737;SDS011;17906;47.684;10.806;2024-03-02T08:30:26;2.40;;;1.90;;
16737;SDS011;17906;47.684;10.806;2024-03-02T08:32:52;2.67;;;2.00;;
16737;SDS011;17906;47.684;10.806;2024-03-02T08:35:18;3.37;;;1.70;;
16737;SDS011;17906;47.684;10.806;2024-03-02T08:37:47;8.37;;;2.20;;
16737;SDS011;17906;47.684;10.806;2024-03-02T08:40:15;7.57;;;2.80;;
16737;SDS011;17906;47.684;10.806;2024-03-02T08:42:41;6.07;;;3.30;;
16737;SDS011;17906;47.684;10.806;2024-03-02T08:45:08;4.27;;;2.30;;
16737;SDS011;17906;47.684;10.806;2024-03-02T08:47:34;3.43;;;2.03;;
16737;SDS011;17906;47.684;10.806;2024-03-02T08:50:00;3.67;;;2.50;;
16737;SDS011;17906;47.684;10.806;2024-03-02T08:52:27;3.90;;;2.30;;
16737;SDS011;17906;47.684;10.806;2024-03-02T08:54:53;5.60;;;3.17;;
16737;SDS011;17906;47.684;10.806;2024-03-02T08:57:21;4.00;;;2.53;;
16737;SDS011;17906;47.684;10.806;2024-03-02T08:59:48;3.23;;;2.10;;
16737;SDS011;17906;47.684;10.806;2024-03-02T09:02:14;1.97;;;1.40;;
16737;SDS011;17906;47.684;10.806;2024-03-02T09:04:40;5.33;;;1.87;;
16737;SDS011;17906;47.684;10.806;2024-03-02T09:07:07;3.23;;;1.00;;
16737;SDS011;17906;47.684;10.806;2024-03-02T09:09:33;1.40;;;0.90;;
16737;SDS011;17906;47.684;10.806;2024-03-02T09:12:00;2.33;;;1.10;;
16737;SDS011;17906;47.684;10.806;2024-03-02T09:14:27;3.07;;;1.30;;
16737;SDS011;17906;47.684;10.806;2024-03-02T09:16:54;1.97;;;1.27;;
16737;SDS011;17906;47.684;10.806;2024-03-02T09:19:20;2.17;;;1.50;;
16737;SDS011;17906;47.684;10.806;2024-03-02T09:21:47;3.30;;;1.60;;
16737;SDS011;17906;47.684;10.806;2024-03-02T09:24:13;3.87;;;1.93;;
16737;SDS011;17906;47.684;10.806;2024-03-02T09:26:40;3.07;;;1.87;;
16737;SDS011;17906;47.684;10.806;2024-03-02T09:29:06;3.87;;;1.93;;
16737;SDS011;17906;47.684;10.806;2024-03-02T09:31:38;3.40;;;2.20;;
16737;SDS011;17906;47.684;10.806;2024-03-02T09:34:05;5.40;;;1.90;;
16737;SDS011;17906;47.684;10.806;2024-03-02T09:36:31;3.77;;;2.03;;
16737;SDS011;17906;47.684;10.806;2024-03-02T09:38:57;2.90;;;2.17;;
16737;SDS011;17906;47.684;10.806;2024-03-02T09:41:24;2.73;;;1.60;;
16737;SDS011;17906;47.684;10.806;2024-03-02T09:43:50;3.67;;;1.40;;
16737;SDS011;17906;47.684;10.806;2024-03-02T09:46:17;2.07;;;1.40;;
16737;SDS011;17906;47.684;10.806;2024-03-02T09:48:45;3.70;;;1.27;;
16737;SDS011;17906;47.684;10.806;2024-03-02T09:51:11;1.47;;;0.80;;
16737;SDS011;17906;47.684;10.806;2024-03-02T09:53:39;2.80;;;0.83;;
16737;SDS011;17906;47.684;10.806;2024-03-02T09:56:05;2.40;;;0.90;;
16737;SDS011;17906;47.684;10.806;2024-03-02T09:58:32;3.37;;;0.87;;
16737;SDS011;17906;47.684;10.806;2024-03-02T10:00:59;1.40;;;0.80;;
16737;SDS011;17906;47.684;10.806;2024-03-02T10:03:25;2.17;;;1.20;;
16737;SDS011;17906;47.684;10.806;2024-03-02T10:05:54;1.70;;;0.90;;
16737;SDS011;17906;47.684;10.806;2024-03-02T10:08:20;1.50;;;0.60;;
16737;SDS011;17906;47.684;10.806;2024-03-02T10:10:46;1.80;;;0.60;;
16737;SDS011;17906;47.684;10.806;2024-03-02T10:13:13;1.13;;;1.00;;
16737;SDS011;17906;47.684;10.806;2024-03-02T10:15:40;4.93;;;2.53;;
16737;SDS011;17906;47.684;10.806;2024-03-02T10:18:08;11.03;;;5.27;;
16737;SDS011;17906;47.684;10.806;2024-03-02T10:20:34;9.37;;;3.53;;
16737;SDS011;17906;47.684;10.806;2024-03-02T10:23:12;6.53;;;3.20;;
16737;SDS011;17906;47.684;10.806;2024-03-02T10:25:38;2.57;;;1.70;;
16737;SDS011;17906;47.684;10.806;2024-03-02T10:28:05;4.10;;;1.60;;
16737;SDS011;17906;47.684;10.806;2024-03-02T10:30:31;2.60;;;1.30;;
16737;SDS011;17906;47.684;10.806;2024-03-02T10:32:58;1.23;;;0.80;;
16737;SDS011;17906;47.684;10.806;2024-03-02T10:35:26;3.07;;;0.93;;
16737;SDS011;17906;47.684;10.806;2024-03-02T10:37:52;3.13;;;1.63;;
16737;SDS011;17906;47.684;10.806;2024-03-02T10:40:22;3.10;;;1.50;;
16737;SDS011;17906;47.684;10.806;2024-03-02T10:42:49;4.07;;;1.80;;
16737;SDS011;17906;47.684;10.806;2024-03-02T10:45:16;1.43;;;0.70;;
16737;SDS011;17906;47.684;10.806;2024-03-02T10:47:43;5.67;;;2.07;;
16737;SDS011;17906;47.684;10.806;2024-03-02T10:50:09;6.63;;;2.90;;
16737;SDS011;17906;47.684;10.806;2024-03-02T10:52:36;3.13;;;1.07;;
16737;SDS011;17906;47.684;10.806;2024-03-02T10:55:03;2.37;;;1.20;;
16737;SDS011;17906;47.684;10.806;2024-03-02T10:57:35;1.13;;;0.97;;
16737;SDS011;17906;47.684;10.806;2024-03-02T11:00:06;1.53;;;0.80;;
16737;SDS011;17906;47.684;10.806;2024-03-02T11:02:39;1.10;;;0.80;;
16737;SDS011;17906;47.684;10.806;2024-03-02T11:05:07;3.70;;;0.80;;
16737;SDS011;17906;47.684;10.806;2024-03-02T11:07:35;0.87;;;0.70;;
16737;SDS011;17906;47.684;10.806;2024-03-02T11:10:03;4.43;;;1.20;;
16737;SDS011;17906;47.684;10.806;2024-03-02T11:12:35;0.97;;;0.70;;
16737;SDS011;17906;47.684;10.806;2024-03-02T11:15:03;1.20;;;0.80;;
16737;SDS011;17906;47.684;10.806;2024-03-02T11:17:31;6.03;;;2.83;;
16737;SDS011;17906;47.684;10.806;2024-03-02T11:19:57;5.07;;;2.03;;
16737;SDS011;17906;47.684;10.806;2024-03-02T11:22:24;3.07;;;1.50;;
16737;SDS011;17906;47.684;10.806;2024-03-02T11:24:51;3.90;;;2.10;;
16737;SDS011;17906;47.684;10.806;2024-03-02T11:30:00;5.50;;;2.07;;
16737;SDS011;17906;47.684;10.806;2024-03-02T11:32:27;1.30;;;0.90;;
16737;SDS011;17906;47.684;10.806;2024-03-02T11:34:53;1.63;;;1.00;;
16737;SDS011;17906;47.684;10.806;2024-03-02T11:37:20;1.10;;;0.77;;
16737;SDS011;17906;47.684;10.806;2024-03-02T11:39:48;3.90;;;1.00;;
16737;SDS011;17906;47.684;10.806;2024-03-02T11:42:15;2.37;;;1.00;;
16737;SDS011;17906;47.684;10.806;2024-03-02T11:44:42;1.77;;;1.13;;
16737;SDS011;17906;47.684;10.806;2024-03-02T11:47:10;2.40;;;1.03;;
16737;SDS011;17906;47.684;10.806;2024-03-02T11:49:39;1.93;;;1.40;;
16737;SDS011;17906;47.684;10.806;2024-03-02T11:52:06;1.57;;;1.40;;
16737;SDS011;17906;47.684;10.806;2024-03-02T11:54:34;3.17;;;1.70;;
16737;SDS011;17906;47.684;10.806;2024-03-02T11:57:01;2.90;;;1.80;;
16737;SDS011;17906;47.684;10.806;2024-03-02T11:59:28;3.17;;;2.00;;
16737;SDS011;17906;47.684;10.806;2024-03-02T12:01:55;3.20;;;1.53;;
16737;SDS011;17906;47.684;10.806;2024-03-02T12:04:22;3.13;;;1.80;;
16737;SDS011;17906;47.684;10.806;2024-03-02T12:06:53;2.97;;;1.77;;
16737;SDS011;17906;47.684;10.806;2024-03-02T12:09:20;2.80;;;2.13;;
16737;SDS011;17906;47.684;10.806;2024-03-02T12:11:46;2.47;;;1.90;;
16737;SDS011;17906;47.684;10.806;2024-03-02T12:14:13;4.87;;;2.50;;
16737;SDS011;17906;47.684;10.806;2024-03-02T12:16:43;3.03;;;2.03;;
16737;SDS011;17906;47.684;10.806;2024-03-02T12:19:09;6.07;;;3.40;;
16737;SDS011;17906;47.684;10.806;2024-03-02T12:21:37;7.80;;;4.20;;
16737;SDS011;17906;47.684;10.806;2024-03-02T12:24:04;5.97;;;3.10;;
16737;SDS011;17906;47.684;10.806;2024-03-02T12:26:30;2.33;;;1.93;;
16737;SDS011;17906;47.684;10.806;2024-03-02T12:28:57;5.43;;;3.70;;
16737;SDS011;17906;47.684;10.806;2024-03-02T12:31:24;2.70;;;1.67;;
16737;SDS011;17906;47.684;10.806;2024-03-02T12:33:50;16.63;;;6.53;;
16737;SDS011;17906;47.684;10.806;2024-03-02T12:36:17;9.27;;;4.47;;
16737;SDS011;17906;47.684;10.806;2024-03-02T12:38:45;6.27;;;3.10;;
16737;SDS011;17906;47.684;10.806;2024-03-02T12:41:14;7.70;;;3.40;;
16737;SDS011;17906;47.684;10.806;2024-03-02T12:43:40;2.87;;;2.20;;
16737;SDS011;17906;47.684;10.806;2024-03-02T12:46:07;3.00;;;2.40;;
16737;SDS011;17906;47.684;10.806;2024-03-02T12:48:34;4.07;;;2.67;;
16737;SDS011;17906;47.684;10.806;2024-03-02T12:51:00;6.17;;;3.20;;
16737;SDS011;17906;47.684;10.806;2024-03-02T12:53:27;5.10;;;3.33;;
16737;SDS011;17906;47.684;10.806;2024-03-02T12:55:54;4.03;;;3.00;;
16737;SDS011;17906;47.684;10.806;2024-03-02T12:58:22;7.60;;;4.73;;
16737;SDS011;17906;47.684;10.806;2024-03-02T13:00:48;6.13;;;3.60;;
16737;SDS011;17906;47.684;10.806;2024-03-02T13:03:17;4.63;;;2.80;;
16737;SDS011;17906;47.684;10.806;2024-03-02T13:05:48;5.47;;;3.50;;
16737;SDS011;17906;47.684;10.806;2024-03-02T13:08:14;7.67;;;3.87;;
16737;SDS011;17906;47.684;10.806;2024-03-02T13:10:41;6.20;;;3.03;;
16737;SDS011;17906;47.684;10.806;2024-03-02T13:13:08;3.50;;;2.77;;
16737;SDS011;17906;47.684;10.806;2024-03-02T13:15:35;6.33;;;2.40;;
16737;SDS011;17906;47.684;10.806;2024-03-02T13:18:02;3.20;;;2.23;;
16737;SDS011;17906;47.684;10.806;2024-03-02T13:20:29;4.10;;;2.40;;
16737;SDS011;17906;47.684;10.806;2024-03-02T13:22:56;3.47;;;2.07;;
16737;SDS011;17906;47.684;10.806;2024-03-02T13:25:23;5.67;;;2.20;;
16737;SDS011;17906;47.684;10.806;2024-03-02T13:27:49;4.67;;;3.10;;
16737;SDS011;17906;47.684;10.806;2024-03-02T13:30:17;6.73;;;2.43;;
16737;SDS011;17906;47.684;10.806;2024-03-02T13:32:44;3.63;;;2.30;;
16737;SDS011;17906;47.684;10.806;2024-03-02T13:35:10;3.50;;;2.53;;
16737;SDS011;17906;47.684;10.806;2024-03-02T13:37:37;2.40;;;1.80;;
16737;SDS011;17906;47.684;10.806;2024-03-02T13:40:04;2.33;;;1.83;;
16737;SDS011;17906;47.684;10.806;2024-03-02T13:42:31;2.87;;;2.03;;
16737;SDS011;17906;47.684;10.806;2024-03-02T13:44:57;3.57;;;2.13;;
16737;SDS011;17906;47.684;10.806;2024-03-02T13:47:25;4.40;;;2.07;;
16737;SDS011;17906;47.684;10.806;2024-03-02T13:49:52;4.30;;;1.93;;
16737;SDS011;17906;47.684;10.806;2024-03-02T13:52:19;7.33;;;2.87;;
16737;SDS011;17906;47.684;10.806;2024-03-02T13:54:46;4.90;;;2.50;;
16737;SDS011;17906;47.684;10.806;2024-03-02T13:57:12;5.57;;;3.07;;
16737;SDS011;17906;47.684;10.806;2024-03-02T13:59:39;6.77;;;3.30;;
16737;SDS011;17906;47.684;10.806;2024-03-02T14:02:06;7.57;;;3.77;;
16737;SDS011;17906;47.684;10.806;2024-03-02T14:04:35;3.27;;;2.17;;
16737;SDS011;17906;47.684;10.806;2024-03-02T14:07:02;10.87;;;4.03;;
16737;SDS011;17906;47.684;10.806;2024-03-02T14:09:29;9.43;;;4.90;;
16737;SDS011;17906;47.684;10.806;2024-03-02T14:11:55;7.13;;;3.50;;
16737;SDS011;17906;47.684;10.806;2024-03-02T14:14:22;4.50;;;2.27;;
16737;SDS011;17906;47.684;10.806;2024-03-02T14:16:49;3.17;;;2.10;;
16737;SDS011;17906;47.684;10.806;2024-03-02T14:19:15;5.53;;;2.30;;
16737;SDS011;17906;47.684;10.806;2024-03-02T14:21:43;4.63;;;2.77;;
16737;SDS011;17906;47.684;10.806;2024-03-02T14:24:09;3.53;;;2.43;;
16737;SDS011;17906;47.684;10.806;2024-03-02T14:26:36;5.20;;;2.43;;
16737;SDS011;17906;47.684;10.806;2024-03-02T14:29:03;5.67;;;2.43;;
16737;SDS011;17906;47.684;10.806;2024-03-02T14:31:30;3.53;;;2.50;;
16737;SDS011;17906;47.684;10.806;2024-03-02T14:33:57;4.53;;;2.50;;